Time;durP1;ratioP1;P1;durP2;ratioP2;P2;SDS_P1;SDS_P2;PMS_P1;PMS_P2;Temp;Humidity;BMP_temperature;BMP_pressure;BME280_temperature;BME280_humidity;BME280_pressure;Samples;Min_cycle;Max_cycle;Signal;HPM_P1;HPM_P2
2021/03/26 00:01:55;;;;;;;15.30;10.40;;;8.60;90.10;;;;;;5055197;28;20189;-49
2021/03/26 00:04:21;;;;;;;17.53;11.80;;;8.50;90.40;;;;;;5069395;28;20182;-49
2021/03/26 00:06:49;;;;;;;16.27;12.30;;;8.40;90.70;;;;;;5073040;28;20210;-57
2021/03/26 00:09:18;;;;;;;14.77;11.83;;;8.40;91.10;;;;;;5055692;28;20615;-54
2021/03/26 00:11:45;;;;;;;15.73;11.70;;;8.40;91.10;;;;;;5066764;28;20237;-48
2021/03/26 00:14:11;;;;;;;18.00;12.37;;;8.40;91.20;;;;;;5062831;28;20174;-54
2021/03/26 00:16:37;;;;;;;17.90;12.57;;;8.30;91.50;;;;;;5061136;28;20209;-50
2021/03/26 00:19:03;;;;;;;17.93;12.50;;;8.20;91.50;;;;;;5063169;28;20171;-58
2021/03/26 00:21:29;;;;;;;17.60;12.77;;;8.30;91.70;;;;;;5061814;28;20186;-57
2021/03/26 00:23:55;;;;;;;17.87;12.63;;;8.30;92.00;;;;;;5063338;28;20206;-58
2021/03/26 00:26:21;;;;;;;17.53;12.47;;;8.20;92.20;;;;;;5060003;28;20198;-50
2021/03/26 00:28:46;;;;;;;18.20;13.03;;;8.20;92.60;;;;;;5062500;28;20206;-58
2021/03/26 00:31:12;;;;;;;18.73;13.57;;;8.20;92.50;;;;;;5071837;28;20206;-47
2021/03/26 00:33:38;;;;;;;18.27;13.43;;;8.10;92.70;;;;;;5067078;28;20261;-53
2021/03/26 00:36:04;;;;;;;17.37;12.30;;;8.10;93.00;;;;;;5073185;28;20214;-47
2021/03/26 00:38:30;;;;;;;17.67;12.83;;;8.10;93.30;;;;;;5064477;28;20278;-53
2021/03/26 00:40:55;;;;;;;16.23;12.60;;;8.00;93.40;;;;;;5055991;28;20587;-52
2021/03/26 00:43:22;;;;;;;16.77;11.70;;;8.00;93.60;;;;;;5055831;28;20195;-58
2021/03/26 00:45:48;;;;;;;15.30;12.13;;;8.00;93.60;;;;;;5074293;28;20191;-58
2021/03/26 00:48:14;;;;;;;16.37;11.67;;;8.00;94.00;;;;;;5072799;28;20231;-56
2021/03/26 00:50:45;;;;;;;16.77;10.93;;;8.00;94.00;;;;;;5057035;28;20585;-56
2021/03/26 00:53:20;;;;;;;12.90;9.70;;;7.90;94.20;;;;;;5055808;28;20305;-49
2021/03/26 00:55:46;;;;;;;12.37;9.63;;;7.90;94.40;;;;;;5053897;28;20642;-50
2021/03/26 00:58:12;;;;;;;10.60;8.03;;;7.90;94.40;;;;;;5061766;28;20186;-49
2021/03/26 01:00:39;;;;;;;10.33;7.97;;;7.80;94.10;;;;;;5062626;28;20274;-50
2021/03/26 01:03:06;;;;;;;12.33;8.80;;;7.80;93.90;;;;;;5057382;28;20613;-59
2021/03/26 01:05:40;;;;;;;11.57;8.17;;;7.70;94.10;;;;;;5056676;28;20223;-48
2021/03/26 01:08:06;;;;;;;12.83;7.97;;;7.60;94.00;;;;;;5058045;28;20200;-47
2021/03/26 01:10:36;;;;;;;12.33;9.23;;;7.60;94.10;;;;;;5054970;28;20179;-57
2021/03/26 01:13:02;;;;;;;15.17;10.07;;;7.50;94.20;;;;;;5072581;28;20182;-47
2021/03/26 01:15:29;;;;;;;13.70;10.20;;;7.60;94.30;;;;;;5073957;28;20208;-49
2021/03/26 01:17:57;;;;;;;14.53;9.53;;;7.60;94.30;;;;;;5056752;28;20183;-56
2021/03/26 01:20:28;;;;;;;14.53;9.37;;;7.60;94.40;;;;;;5053731;28;20823;-51
2021/03/26 01:22:53;;;;;;;12.83;8.93;;;7.50;94.40;;;;;;5070439;28;20649;-54
2021/03/26 01:25:28;;;;;;;9.67;7.87;;;7.50;94.60;;;;;;5072358;28;20248;-55
2021/03/26 01:27:53;;;;;;;11.57;8.70;;;7.50;94.70;;;;;;5064947;28;20676;-47
2021/03/26 01:30:22;;;;;;;13.43;9.07;;;7.40;94.60;;;;;;5069888;28;20253;-57
2021/03/26 01:32:49;;;;;;;11.97;8.37;;;7.50;94.50;;;;;;5067614;28;20183;-54
2021/03/26 01:35:16;;;;;;;10.27;7.47;;;7.40;94.60;;;;;;5072005;28;20653;-47
2021/03/26 01:37:41;;;;;;;11.47;8.43;;;7.40;94.90;;;;;;5070652;28;20225;-59
2021/03/26 01:40:10;;;;;;;10.10;7.67;;;7.40;95.00;;;;;;5072458;28;20189;-55
2021/03/26 01:42:37;;;;;;;10.50;7.67;;;7.30;94.90;;;;;;5072046;28;20233;-49
2021/03/26 01:45:18;;;;;;;11.27;7.80;;;7.30;94.90;;;;;;5056402;28;20211;-48
2021/03/26 01:47:44;;;;;;;12.63;8.20;;;7.30;95.10;;;;;;5066487;28;20182;-47
2021/03/26 01:50:14;;;;;;;10.47;7.77;;;7.30;95.20;;;;;;5070246;28;20179;-47
2021/03/26 01:52:40;;;;;;;12.73;8.03;;;7.40;95.30;;;;;;5073530;28;20189;-48
2021/03/26 01:55:08;;;;;;;12.23;8.50;;;7.30;95.60;;;;;;5071981;28;20582;-47
2021/03/26 01:57:35;;;;;;;11.20;8.20;;;7.30;95.90;;;;;;5072303;28;20193;-54
2021/03/26 02:00:01;;;;;;;11.40;8.50;;;7.30;96.00;;;;;;5056541;28;20179;-58
2021/03/26 02:02:27;;;;;;;11.80;7.97;;;7.20;96.00;;;;;;5053948;28;20294;-50
2021/03/26 02:04:53;;;;;;;12.43;8.13;;;7.20;96.10;;;;;;5073609;28;20664;-54
2021/03/26 02:07:20;;;;;;;10.73;8.50;;;7.20;95.90;;;;;;5075662;28;20261;-58
2021/03/26 02:09:45;;;;;;;12.57;9.47;;;7.20;96.10;;;;;;5078375;28;20187;-57
2021/03/26 02:12:25;;;;;;;13.80;10.00;;;7.10;96.00;;;;;;5075620;28;20177;-53
2021/03/26 02:14:56;;;;;;;14.57;10.73;;;7.10;96.10;;;;;;5075749;28;21424;-48
2021/03/26 02:17:24;;;;;;;15.13;10.67;;;7.10;96.40;;;;;;5078096;28;20224;-55
2021/03/26 02:20:12;;;;;;;16.57;10.73;;;7.10;96.50;;;;;;5076393;28;20198;-53
2021/03/26 02:22:38;;;;;;;15.53;11.13;;;7.10;96.30;;;;;;5066088;28;20214;-54
2021/03/26 02:25:11;;;;;;;13.67;9.57;;;7.10;96.40;;;;;;5062267;28;20774;-47
2021/03/26 02:27:38;;;;;;;14.77;10.37;;;7.10;96.50;;;;;;5061190;28;20213;-59
2021/03/26 02:30:15;;;;;;;15.20;10.10;;;7.00;96.70;;;;;;5067316;28;20175;-56
2021/03/26 02:32:42;;;;;;;13.67;9.80;;;7.10;96.80;;;;;;5070565;28;20190;-57
2021/03/26 02:35:28;;;;;;;11.53;8.53;;;7.00;97.10;;;;;;5057108;28;20190;-49
2021/03/26 02:38:14;;;;;;;12.03;8.77;;;6.90;97.60;;;;;;5060338;28;20186;-58
2021/03/26 02:40:49;;;;;;;13.33;9.60;;;6.90;98.00;;;;;;5058236;28;20183;-58
2021/03/26 02:43:22;;;;;;;12.60;9.50;;;6.90;98.20;;;;;;5058269;28;20267;-53
2021/03/26 02:46:11;;;;;;;11.13;8.50;;;6.90;98.20;;;;;;5058081;28;20240;-57
2021/03/26 02:48:51;;;;;;;15.47;8.97;;;6.80;98.70;;;;;;5047627;28;20187;-56
2021/03/26 02:51:41;;;;;;;12.83;8.83;;;6.70;99.10;;;;;;5059772;28;20179;-48
2021/03/26 02:54:21;;;;;;;12.43;8.83;;;6.70;99.40;;;;;;5064867;28;20194;-56
2021/03/26 02:56:59;;;;;;;11.83;8.87;;;6.70;99.80;;;;;;5068793;28;20195;-48
2021/03/26 02:59:39;;;;;;;13.00;8.70;;;6.70;99.90;;;;;;5068938;28;20186;-58
2021/03/26 03:02:07;;;;;;;12.13;8.73;;;6.70;99.90;;;;;;5075074;28;20189;-51
2021/03/26 03:04:40;;;;;;;12.10;8.37;;;6.60;99.90;;;;;;5076410;28;20178;-47
2021/03/26 03:07:08;;;;;;;13.33;8.87;;;6.60;99.90;;;;;;5059108;28;20551;-57
2021/03/26 03:09:38;;;;;;;11.50;8.33;;;6.60;99.90;;;;;;5057563;28;20175;-55
2021/03/26 03:12:09;;;;;;;11.60;8.20;;;6.60;99.90;;;;;;5057147;28;20186;-55
2021/03/26 03:14:51;;;;;;;10.83;8.20;;;6.50;99.90;;;;;;5069649;28;20255;-55
2021/03/26 03:17:40;;;;;;;13.07;8.80;;;6.50;99.90;;;;;;5075943;28;20526;-50
2021/03/26 03:20:17;;;;;;;10.87;8.27;;;6.50;99.90;;;;;;5074107;28;20265;-53
2021/03/26 03:22:52;;;;;;;11.10;8.20;;;6.50;99.90;;;;;;5075272;28;20198;-53
2021/03/26 03:25:24;;;;;;;12.07;8.07;;;6.50;99.90;;;;;;5073448;28;20549;-52
2021/03/26 03:28:20;;;;;;;10.87;8.00;;;6.60;99.90;;;;;;5057925;28;20167;-57
2021/03/26 03:31:13;;;;;;;11.83;7.73;;;6.70;99.90;;;;;;5064039;28;20266;-53
2021/03/26 03:33:39;;;;;;;10.67;7.33;;;6.60;99.90;;;;;;5074833;28;20576;-48
2021/03/26 03:36:37;;;;;;;8.30;6.70;;;6.60;99.90;;;;;;5056533;28;20278;-58
2021/03/26 03:39:16;;;;;;;12.57;7.40;;;6.70;99.90;;;;;;5003063;28;20203;-47
2021/03/26 03:42:00;;;;;;;11.00;8.00;;;6.70;99.90;;;;;;5002619;28;20189;-49
2021/03/26 03:44:47;;;;;;;10.17;7.50;;;6.70;99.90;;;;;;4995552;28;20224;-55
2021/03/26 03:47:37;;;;;;;11.03;7.50;;;6.60;99.90;;;;;;4994741;28;20491;-47
2021/03/26 03:50:15;;;;;;;10.93;7.93;;;6.60;99.90;;;;;;4995366;28;20193;-50
2021/03/26 03:53:03;;;;;;;13.23;9.07;;;6.50;99.90;;;;;;4994911;28;20188;-57
2021/03/26 03:55:31;;;;;;;10.83;8.03;;;6.50;99.90;;;;;;5008290;28;20212;-53
2021/03/26 03:58:20;;;;;;;11.70;8.30;;;6.40;99.90;;;;;;4995005;28;20181;-57
2021/03/26 04:00:56;;;;;;;13.63;8.27;;;6.30;99.90;;;;;;4991846;28;20209;-47
2021/03/26 04:03:41;;;;;;;12.63;8.83;;;6.30;99.90;;;;;;4984643;28;20213;-56
2021/03/26 04:06:16;;;;;;;11.57;8.10;;;6.30;99.90;;;;;;4997146;28;20192;-47
2021/03/26 04:08:46;;;;;;;12.20;8.13;;;6.30;99.90;;;;;;4996309;28;20291;-57
2021/03/26 04:11:44;;;;;;;12.10;8.43;;;6.10;99.90;;;;;;5010225;28;20176;-51
2021/03/26 04:14:30;;;;;;;10.40;8.23;;;6.20;99.90;;;;;;5013166;28;20185;-50
2021/03/26 04:17:02;;;;;;;24.27;10.80;;;6.30;99.90;;;;;;5059255;28;20651;-50
2021/03/26 04:19:35;;;;;;;14.70;9.80;;;6.30;99.90;;;;;;5056531;28;20179;-47
2021/03/26 04:22:06;;;;;;;13.67;9.60;;;6.20;99.90;;;;;;5054703;28;20519;-54
2021/03/26 04:24:47;;;;;;;11.37;8.60;;;6.10;99.90;;;;;;5056916;28;20629;-48
2021/03/26 04:27:23;;;;;;;12.37;9.17;;;6.10;99.90;;;;;;5068151;28;20178;-58
2021/03/26 04:29:52;;;;;;;11.90;9.23;;;6.00;99.90;;;;;;5072392;28;20170;-58
2021/03/26 04:32:20;;;;;;;13.30;9.43;;;6.00;99.90;;;;;;5069210;28;20218;-58
2021/03/26 04:34:46;;;;;;;14.80;9.97;;;6.00;99.90;;;;;;5071361;28;20171;-51
2021/03/26 04:37:36;;;;;;;11.47;9.10;;;6.10;99.90;;;;;;5067123;28;20593;-49
2021/03/26 04:40:09;;;;;;;11.20;8.90;;;6.10;99.90;;;;;;5066249;28;20643;-54
2021/03/26 04:42:46;;;;;;;15.53;11.53;;;6.00;99.90;;;;;;5069193;28;20195;-57
2021/03/26 04:45:48;;;;;;;14.93;10.87;;;5.90;99.90;;;;;;5072475;28;20246;-56
2021/03/26 04:48:29;;;;;;;14.83;11.00;;;5.80;99.90;;;;;;5054458;28;20258;-47
2021/03/26 04:51:08;;;;;;;16.63;10.83;;;5.70;99.90;;;;;;5054746;28;20202;-54
2021/03/26 04:53:48;;;;;;;15.53;11.67;;;5.60;99.90;;;;;;5055244;28;20190;-47
2021/03/26 04:56:20;;;;;;;17.10;11.67;;;5.60;99.90;;;;;;5067830;28;20258;-56
2021/03/26 04:58:52;;;;;;;15.33;10.57;;;5.50;99.90;;;;;;5058078;28;20519;-49
2021/03/26 05:01:19;;;;;;;13.87;10.50;;;5.50;99.90;;;;;;5054734;28;20659;-51
2021/03/26 05:03:55;;;;;;;15.33;10.73;;;5.40;99.90;;;;;;5055172;28;20651;-57
2021/03/26 05:06:30;;;;;;;12.73;9.37;;;5.40;99.90;;;;;;5053794;28;20206;-56
2021/03/26 05:09:01;;;;;;;13.37;8.97;;;5.50;99.90;;;;;;5055774;28;20202;-50
2021/03/26 05:11:32;;;;;;;14.90;10.47;;;5.50;99.90;;;;;;5058181;28;20183;-56
2021/03/26 05:14:07;;;;;;;15.67;10.37;;;5.60;99.90;;;;;;5075068;28;20167;-56
2021/03/26 05:16:51;;;;;;;13.97;10.47;;;5.90;99.90;;;;;;5062185;28;20206;-51
2021/03/26 05:19:55;;;;;;;15.67;10.90;;;5.50;99.90;;;;;;5054459;28;20167;-55
2021/03/26 05:22:45;;;;;;;15.00;10.37;;;5.60;99.90;;;;;;5004692;28;20250;-58
2021/03/26 05:25:28;;;;;;;13.63;8.97;;;5.60;99.90;;;;;;5006283;28;20242;-48
2021/03/26 05:27:54;;;;;;;10.23;8.00;;;5.60;99.90;;;;;;5008206;28;20647;-47
2021/03/26 05:30:33;;;;;;;12.13;8.53;;;5.60;99.90;;;;;;5011472;28;20188;-51
2021/03/26 05:33:08;;;;;;;12.23;8.27;;;5.70;99.90;;;;;;5015989;28;20279;-57
2021/03/26 05:36:01;;;;;;;11.90;7.77;;;5.70;99.90;;;;;;5002607;28;20265;-47
2021/03/26 05:38:33;;;;;;;11.60;7.80;;;5.70;99.90;;;;;;5014382;28;20607;-48
2021/03/26 05:41:22;;;;;;;12.63;8.30;;;5.70;99.90;;;;;;5028340;28;20176;-47
2021/03/26 05:44:07;;;;;;;12.00;8.47;;;5.80;99.90;;;;;;5024809;28;20211;-54
2021/03/26 05:47:01;;;;;;;14.97;9.37;;;4.20;99.90;;;;;;5030377;28;20246;-56
2021/03/26 05:49:52;;;;;;;12.27;8.97;;;6.00;99.90;;;;;;5031892;28;20168;-48
2021/03/26 05:52:59;;;;;;;13.67;9.63;;;6.10;99.90;;;;;;5015345;28;20275;-55
2021/03/26 05:55:37;;;;;;;11.13;8.40;;;6.20;99.90;;;;;;4959501;28;20733;-49
2021/03/26 05:58:35;;;;;;;10.70;7.60;;;6.20;99.90;;;;;;5015192;28;20178;-48
2021/03/26 06:01:23;;;;;;;11.27;8.10;;;6.30;99.90;;;;;;5053582;28;20178;-51
2021/03/26 06:04:39;;;;;;;10.30;7.57;;;6.40;99.90;;;;;;5066813;28;20202;-56
2021/03/26 06:07:47;;;;;;;14.97;8.13;;;6.40;99.90;;;;;;5014122;28;20231;-57
2021/03/26 06:10:33;;;;;;;15.20;8.53;;;6.50;99.90;;;;;;5022952;28;20239;-56
2021/03/26 06:12:58;;;;;;;12.97;8.83;;;6.60;99.90;;;;;;5006709;28;20559;-57
2021/03/26 06:16:00;;;;;;;13.40;10.80;;;6.70;99.90;;;;;;5020387;28;20727;-55
2021/03/26 06:18:37;;;;;;;12.33;9.13;;;6.80;99.90;;;;;;5011073;28;20203;-57
2021/03/26 06:21:12;;;;;;;13.23;10.40;;;6.80;99.90;;;;;;5030289;28;20254;-48
2021/03/26 06:24:13;;;;;;;19.13;13.00;;;6.90;99.90;;;;;;5030386;28;20573;-50
2021/03/26 06:26:57;;;;;;;16.30;11.33;;;7.00;99.90;;;;;;5031643;28;20191;-50
2021/03/26 06:29:47;;;;;;;15.23;11.40;;;7.10;99.90;;;;;;5029177;28;20196;-51
2021/03/26 06:32:39;;;;;;;15.40;11.47;;;7.30;99.90;;;;;;5021391;28;20649;-48
2021/03/26 06:35:11;;;;;;;18.53;12.73;;;7.40;99.90;;;;;;5024211;28;20216;-47
2021/03/26 06:37:49;;;;;;;14.57;10.90;;;7.50;99.90;;;;;;5019646;28;20275;-53
2021/03/26 06:40:33;;;;;;;14.43;10.27;;;7.60;99.90;;;;;;5024390;28;20702;-58
2021/03/26 06:43:41;;;;;;;15.47;11.83;;;7.70;99.90;;;;;;5057822;28;20207;-53
2021/03/26 06:46:48;;;;;;;15.77;10.03;;;7.90;99.90;;;;;;5064128;28;20212;-48
2021/03/26 06:49:29;;;;;;;12.27;9.43;;;8.00;99.90;;;;;;5064092;28;20277;-58
2021/03/26 06:52:16;;;;;;;13.33;10.53;;;8.20;99.90;;;;;;5056874;28;20195;-55
2021/03/26 06:55:11;;;;;;;13.03;9.33;;;8.30;99.90;;;;;;5056776;28;20648;-50
2021/03/26 06:58:21;;;;;;;10.00;8.50;;;8.60;99.90;;;;;;5057385;28;20448;-57
2021/03/26 07:01:18;;;;;;;11.47;7.80;;;8.30;99.90;;;;;;5056409;28;20266;-47
2021/03/26 07:03:59;;;;;;;10.63;8.07;;;8.40;99.90;;;;;;5068203;28;20620;-58
2021/03/26 07:06:49;;;;;;;12.30;7.27;;;8.40;99.90;;;;;;5058950;28;20658;-51
2021/03/26 07:09:33;;;;;;;10.03;7.10;;;8.50;99.90;;;;;;5053210;28;20175;-59
2021/03/26 07:12:09;;;;;;;11.90;8.23;;;7.30;99.90;;;;;;5055000;28;20210;-51
2021/03/26 07:14:48;;;;;;;10.20;7.33;;;8.80;99.90;;;;;;5066356;28;20175;-60
2021/03/26 07:17:47;;;;;;;10.87;7.47;;;9.00;99.90;;;;;;5075729;28;20178;-60
2021/03/26 07:20:50;;;;;;;9.73;6.80;;;9.10;99.90;;;;;;5076154;28;20261;-60
2021/03/26 07:23:31;;;;;;;11.40;8.10;;;9.20;99.90;;;;;;5076342;28;20194;-58
2021/03/26 07:26:19;;;;;;;10.20;7.53;;;9.30;99.90;;;;;;5076534;28;20194;-48
2021/03/26 07:29:27;;;;;;;9.50;7.40;;;9.20;99.90;;;;;;5075731;28;20235;-48
2021/03/26 07:32:18;;;;;;;9.40;7.80;;;9.20;99.90;;;;;;5075220;28;20178;-60
2021/03/26 07:35:04;;;;;;;9.97;7.50;;;9.20;99.90;;;;;;5076361;28;20166;-56
2021/03/26 07:37:52;;;;;;;9.03;7.37;;;9.30;99.90;;;;;;5076330;28;20178;-60
2021/03/26 07:40:44;;;;;;;11.23;7.30;;;9.40;99.90;;;;;;5076586;28;20228;-49
2021/03/26 07:43:43;;;;;;;8.63;6.97;;;9.40;99.90;;;;;;5076317;28;20206;-59
2021/03/26 07:46:35;;;;;;;9.13;7.07;;;9.60;99.90;;;;;;5075586;28;20198;-57
2021/03/26 07:49:06;;;;;;;9.87;7.60;;;10.00;99.90;;;;;;5076030;28;20173;-52
2021/03/26 07:52:00;;;;;;;8.50;6.70;;;10.20;99.90;;;;;;5075903;28;20163;-59
2021/03/26 07:54:59;;;;;;;9.17;7.60;;;10.50;99.90;;;;;;5075764;28;20194;-58
2021/03/26 07:58:21;;;;;;;10.83;7.03;;;10.50;99.90;;;;;;5075919;28;20257;-57
2021/03/26 08:00:57;;;;;;;10.60;7.43;;;10.60;99.90;;;;;;5075517;28;20186;-57
2021/03/26 08:03:37;;;;;;;10.60;7.93;;;10.80;99.80;;;;;;5075496;28;20230;-51
2021/03/26 08:06:13;;;;;;;10.37;6.50;;;11.00;99.80;;;;;;5075889;28;20191;-54
2021/03/26 08:08:54;;;;;;;8.00;6.30;;;11.10;98.80;;;;;;5075223;28;20295;-51
2021/03/26 08:12:07;;;;;;;8.23;6.47;;;11.20;98.70;;;;;;5075366;28;20163;-61
2021/03/26 08:14:45;;;;;;;8.70;6.67;;;11.30;98.50;;;;;;5071708;28;20182;-48
2021/03/26 08:17:38;;;;;;;9.10;6.47;;;11.30;97.30;;;;;;5075793;28;20166;-57
2021/03/26 08:20:06;;;;;;;8.20;6.77;;;11.40;96.20;;;;;;5075414;28;20621;-57
2021/03/26 08:22:56;;;;;;;8.23;6.30;;;11.40;96.90;;;;;;5075438;28;20195;-57
2021/03/26 08:25:30;;;;;;;7.83;6.63;;;11.50;96.40;;;;;;5075395;28;20288;-60
2021/03/26 08:28:39;;;;;;;10.07;7.07;;;11.60;96.60;;;;;;5075864;28;20188;-60
2021/03/26 08:31:29;;;;;;;8.73;6.80;;;11.80;95.60;;;;;;5075325;28;20181;-48
2021/03/26 08:34:07;;;;;;;10.87;7.20;;;12.00;96.40;;;;;;5074757;28;20163;-60
2021/03/26 08:36:34;;;;;;;9.90;7.57;;;12.10;96.40;;;;;;5074894;28;20205;-56
2021/03/26 08:39:26;;;;;;;9.67;7.33;;;12.30;95.70;;;;;;5075000;28;20174;-50
2021/03/26 08:42:00;;;;;;;10.57;7.30;;;12.30;95.00;;;;;;5074286;28;20174;-48
2021/03/26 08:44:27;;;;;;;11.00;8.10;;;12.30;94.90;;;;;;5075914;28;20202;-54
2021/03/26 08:46:56;;;;;;;14.40;9.73;;;12.10;94.90;;;;;;5074452;28;20206;-50
2021/03/26 08:49:31;;;;;;;9.43;7.10;;;12.30;96.50;;;;;;5074456;28;20178;-49
2021/03/26 08:52:19;;;;;;;9.53;7.30;;;12.60;95.90;;;;;;5076029;28;20177;-56
2021/03/26 08:54:50;;;;;;;9.70;6.97;;;12.90;94.40;;;;;;5074711;28;20518;-54
2021/03/26 08:57:34;;;;;;;8.77;7.23;;;13.10;94.00;;;;;;5076508;28;20548;-60
2021/03/26 09:00:19;;;;;;;10.70;8.40;;;13.30;93.90;;;;;;5071896;28;20183;-57
2021/03/26 09:03:19;;;;;;;10.57;7.00;;;13.30;94.40;;;;;;5077777;28;20197;-51
2021/03/26 09:06:16;;;;;;;9.67;7.03;;;13.40;93.30;;;;;;5089201;28;20273;-48
2021/03/26 09:08:55;;;;;;;9.03;7.00;;;13.60;93.00;;;;;;5064975;28;20158;-60
2021/03/26 09:11:39;;;;;;;9.60;7.50;;;13.80;93.20;;;;;;5088905;28;20601;-60
2021/03/26 09:14:25;;;;;;;11.63;8.00;;;13.90;93.00;;;;;;5078771;28;20176;-59
2021/03/26 09:17:13;;;;;;;10.23;7.10;;;13.90;92.30;;;;;;5061427;28;20197;-59
2021/03/26 09:19:56;;;;;;;10.47;7.60;;;14.20;92.70;;;;;;5054630;28;20259;-50
2021/03/26 09:22:47;;;;;;;10.47;7.30;;;14.40;92.40;;;;;;5053751;28;20183;-58
2021/03/26 09:25:40;;;;;;;10.43;7.67;;;14.50;91.70;;;;;;5056674;28;20553;-58
2021/03/26 09:28:23;;;;;;;10.30;8.17;;;14.70;91.60;;;;;;5053500;28;20542;-49
2021/03/26 09:31:05;;;;;;;10.03;7.77;;;14.60;90.00;;;;;;5061183;28;20175;-52
2021/03/26 09:33:32;;;;;;;10.33;8.13;;;14.60;90.60;;;;;;5065570;28;20234;-60
2021/03/26 09:36:01;;;;;;;10.43;7.80;;;14.80;91.50;;;;;;5074557;28;20197;-62
2021/03/26 09:38:47;;;;;;;12.47;9.30;;;14.90;91.90;;;;;;5074237;28;20182;-57
2021/03/26 09:41:26;;;;;;;12.13;8.70;;;15.00;90.30;;;;;;5073133;28;20181;-49
2021/03/26 09:44:07;;;;;;;10.43;7.70;;;15.20;89.10;;;;;;5073828;28;20388;-49
2021/03/26 09:46:42;;;;;;;10.70;8.40;;;15.60;90.80;;;;;;5073763;28;20232;-61
2021/03/26 09:49:24;;;;;;;11.97;9.77;;;16.00;90.80;;;;;;5073395;28;20228;-49
2021/03/26 09:52:22;;;;;;;17.10;15.33;;;16.20;87.40;;;;;;5073578;28;20188;-54
2021/03/26 09:55:02;;;;;;;10.90;8.60;;;16.40;83.80;;;;;;5071337;28;20664;-49
2021/03/26 09:57:53;;;;;;;10.73;8.73;;;16.30;83.30;;;;;;5074202;28;20178;-58
2021/03/26 10:00:51;;;;;;;12.93;8.80;;;16.40;84.00;;;;;;5063673;28;20181;-59
2021/03/26 10:03:25;;;;;;;12.73;8.43;;;16.40;83.80;;;;;;5063843;28;20259;-61
2021/03/26 10:05:55;;;;;;;12.03;7.97;;;16.70;84.10;;;;;;5063056;28;20194;-61
2021/03/26 10:08:56;;;;;;;11.33;8.10;;;17.10;84.50;;;;;;5052727;28;20705;-60
2021/03/26 10:11:40;;;;;;;12.03;9.10;;;17.50;83.20;;;;;;5059560;28;20190;-52
2021/03/26 10:14:14;;;;;;;10.97;8.20;;;17.80;79.70;;;;;;5072218;28;20176;-50
2021/03/26 10:16:54;;;;;;;12.77;9.43;;;18.00;79.80;;;;;;5072954;28;20227;-59
2021/03/26 10:19:25;;;;;;;11.90;8.47;;;18.20;76.70;;;;;;5073382;28;20189;-61
2021/03/26 10:21:55;;;;;;;15.23;8.40;;;18.50;76.30;;;;;;5072584;28;20600;-60
2021/03/26 10:24:31;;;;;;;11.37;8.33;;;19.20;76.80;;;;;;5072134;28;20204;-61
2021/03/26 10:27:05;;;;;;;11.90;8.60;;;19.90;75.10;;;;;;5073585;28;20491;-61
2021/03/26 10:29:52;;;;;;;11.13;8.50;;;20.50;72.00;;;;;;5074109;28;20221;-59
2021/03/26 10:32:28;;;;;;;10.75;8.00;;;20.90;69.40;;;;;;5075090;28;20257;-50
2021/03/26 10:34:56;;;;;;;10.50;8.18;;;21.50;67.40;;;;;;5082813;28;20228;-59
2021/03/26 10:37:41;;;;;;;12.65;9.32;;;22.50;65.10;;;;;;5076401;28;20189;-61
2021/03/26 10:40:30;;;;;;;10.57;8.48;;;23.70;62.10;;;;;;5064656;28;20186;-60
2021/03/26 10:43:24;;;;;;;11.30;8.88;;;24.70;60.70;;;;;;5067166;28;20198;-58
2021/03/26 10:46:01;;;;;;;12.38;8.95;;;25.70;52.60;;;;;;5083803;28;20268;-59
2021/03/26 10:48:48;;;;;;;10.70;8.57;;;26.60;53.00;;;;;;5083380;28;20635;-61
2021/03/26 10:51:26;;;;;;;9.82;8.13;;;27.90;51.30;;;;;;5085245;28;20177;-59
2021/03/26 10:54:03;;;;;;;10.15;8.98;;;29.10;48.70;;;;;;5074193;28;20210;-57
2021/03/26 10:56:53;;;;;;;10.57;8.68;;;30.40;43.90;;;;;;5074550;28;20285;-62
2021/03/26 10:59:55;;;;;;;10.77;8.23;;;32.10;42.80;;;;;;5076246;28;20181;-62
2021/03/26 11:02:51;;;;;;;11.45;8.63;;;34.40;39.90;;;;;;5075963;28;20170;-60
2021/03/26 11:05:36;;;;;;;14.65;9.23;;;35.10;37.00;;;;;;5076649;28;20189;-57
2021/03/26 11:08:01;;;;;;;11.15;8.85;;;34.90;37.00;;;;;;5076365;28;20166;-62
2021/03/26 11:10:41;;;;;;;10.20;8.88;;;35.70;36.20;;;;;;5076355;28;20158;-62
2021/03/26 11:13:31;;;;;;;11.60;8.68;;;36.90;33.90;;;;;;5076258;28;20166;-56
2021/03/26 11:16:02;;;;;;;10.45;9.13;;;37.40;34.70;;;;;;5076009;28;20193;-57
2021/03/26 11:18:39;;;;;;;9.90;8.90;;;38.10;32.10;;;;;;5076358;28;20181;-53
2021/03/26 11:21:11;;;;;;;10.60;9.50;;;39.10;31.30;;;;;;5076060;28;20170;-63
2021/03/26 11:23:38;;;;;;;12.70;11.20;;;40.40;30.50;;;;;;5076317;28;20206;-54
2021/03/26 11:26:04;;;;;;;9.13;8.20;;;40.60;29.90;;;;;;5076137;28;20189;-54
2021/03/26 11:28:33;;;;;;;18.23;15.32;;;40.30;30.20;;;;;;5076045;28;20167;-55
2021/03/26 11:31:11;;;;;;;10.70;9.25;;;40.30;29.10;;;;;;5075959;28;20173;-62
2021/03/26 11:34:00;;;;;;;10.07;8.73;;;39.80;28.80;;;;;;5075794;28;20249;-63
2021/03/26 11:36:33;;;;;;;12.07;9.27;;;39.90;29.50;;;;;;5075993;28;20198;-57
2021/03/26 11:39:03;;;;;;;12.57;9.45;;;40.90;28.30;;;;;;5075308;28;20174;-53
2021/03/26 11:41:39;;;;;;;11.18;9.90;;;40.20;28.50;;;;;;5075769;28;20194;-56
2021/03/26 11:44:06;;;;;;;11.45;9.73;;;39.80;28.50;;;;;;5075863;28;20560;-54
2021/03/26 11:46:40;;;;;;;12.60;10.43;;;39.60;28.00;;;;;;5075698;28;20193;-58
2021/03/26 11:49:28;;;;;;;10.30;9.20;;;39.50;27.50;;;;;;5075779;28;20180;-63
2021/03/26 11:52:18;;;;;;;11.43;9.88;;;39.80;28.70;;;;;;5075676;28;20253;-63
2021/03/26 11:54:54;;;;;;;12.05;10.00;;;39.90;27.90;;;;;;5075460;28;20618;-62
2021/03/26 11:57:41;;;;;;;12.48;10.93;;;38.70;27.60;;;;;;5075893;28;20198;-51
2021/03/26 12:00:16;;;;;;;11.43;9.07;;;38.80;28.50;;;;;;5075709;28;20261;-54
2021/03/26 12:03:21;;;;;;;10.52;8.23;;;38.20;30.50;;;;;;5075185;28;20197;-57
2021/03/26 12:06:05;;;;;;;9.35;8.35;;;39.50;29.60;;;;;;5052272;28;20237;-62
2021/03/26 12:08:50;;;;;;;10.38;9.18;;;41.00;28.80;;;;;;5075387;28;20197;-57
2021/03/26 12:11:38;;;;;;;10.23;9.05;;;41.90;27.30;;;;;;5075354;28;20180;-63
2021/03/26 12:14:17;;;;;;;12.43;10.45;;;41.40;26.50;;;;;;5075003;28;20198;-61
2021/03/26 12:16:54;;;;;;;12.95;10.13;;;39.00;27.90;;;;;;5075224;28;20668;-63
2021/03/26 12:19:22;;;;;;;11.57;8.88;;;38.20;28.00;;;;;;5074788;28;20200;-58
2021/03/26 12:22:16;;;;;;;10.50;9.40;;;36.70;28.00;;;;;;5075253;28;20249;-63
2021/03/26 12:25:02;;;;;;;11.77;9.73;;;35.50;28.90;;;;;;5073511;28;20271;-63
2021/03/26 12:27:49;;;;;;;13.43;9.48;;;35.10;29.70;;;;;;5075089;28;20265;-63
2021/03/26 12:30:28;;;;;;;10.10;8.38;;;35.00;30.00;;;;;;5075219;28;20178;-54
2021/03/26 12:33:09;;;;;;;13.57;9.43;;;35.10;30.20;;;;;;5074625;28;20170;-56
2021/03/26 12:36:07;;;;;;;10.57;9.18;;;33.90;31.10;;;;;;5074689;28;20740;-62
2021/03/26 12:38:45;;;;;;;13.07;9.57;;;33.30;32.30;;;;;;5040730;28;20204;-54
2021/03/26 12:41:29;;;;;;;11.02;8.35;;;34.20;32.80;;;;;;5074505;28;20170;-56
2021/03/26 12:44:48;;;;;;;9.65;8.05;;;34.20;29.60;;;;;;5074832;28;20201;-62
2021/03/26 12:47:52;;;;;;;10.13;8.43;;;34.20;30.20;;;;;;5032606;28;20591;-63
2021/03/26 12:50:32;;;;;;;9.65;7.72;;;34.80;30.70;;;;;;5011865;28;20726;-63
2021/03/26 12:53:18;;;;;;;8.02;6.28;;;35.00;29.40;;;;;;5012485;28;20513;-59
2021/03/26 12:55:49;;;;;;;7.65;6.55;;;34.40;28.70;;;;;;5055572;28;20677;-60
2021/03/26 12:58:40;;;;;;;6.38;5.15;;;34.00;28.70;;;;;;5074620;28;20224;-61
2021/03/26 13:01:41;;;;;;;8.63;7.25;;;33.10;30.00;;;;;;5074255;28;20178;-50
2021/03/26 13:04:25;;;;;;;7.57;6.10;;;32.30;30.10;;;;;;5074360;28;20229;-50
2021/03/26 13:06:55;;;;;;;7.28;6.32;;;31.80;31.90;;;;;;5068774;28;20225;-53
2021/03/26 13:09:39;;;;;;;7.07;6.10;;;31.30;30.40;;;;;;5066986;28;20178;-57
2021/03/26 13:12:08;;;;;;;5.93;5.00;;;31.30;32.00;;;;;;5062477;28;20191;-62
2021/03/26 13:14:49;;;;;;;8.15;6.50;;;31.60;30.00;;;;;;5072203;28;20193;-55
2021/03/26 13:17:38;;;;;;;7.95;5.70;;;31.80;29.90;;;;;;5078943;28;20183;-60
2021/03/26 13:20:14;;;;;;;7.68;4.90;;;32.40;29.70;;;;;;5081990;28;20554;-54
2021/03/26 13:22:45;;;;;;;6.00;4.70;;;33.30;30.90;;;;;;5053703;28;20179;-53
2021/03/26 13:25:32;;;;;;;8.30;6.60;;;35.30;30.20;;;;;;5053825;28;20666;-62
2021/03/26 13:27:58;;;;;;;7.55;6.05;;;34.10;28.60;;;;;;5063210;28;20255;-59
2021/03/26 13:30:26;;;;;;;8.82;5.72;;;33.10;29.60;;;;;;5072270;28;20215;-53
2021/03/26 13:33:18;;;;;;;7.70;5.82;;;32.80;29.40;;;;;;5073753;28;20506;-59
2021/03/26 13:35:53;;;;;;;8.23;6.30;;;32.40;30.00;;;;;;5078040;28;20190;-49
2021/03/26 13:38:35;;;;;;;7.50;6.70;;;31.80;31.20;;;;;;5084704;28;20192;-51
2021/03/26 13:41:05;;;;;;;7.38;6.53;;;31.20;32.10;;;;;;5053400;28;20190;-60
2021/03/26 13:43:39;;;;;;;7.15;5.20;;;31.00;32.50;;;;;;5054107;28;20203;-54
2021/03/26 13:46:15;;;;;;;7.30;5.88;;;30.70;32.20;;;;;;5053556;28;20283;-60
2021/03/26 13:48:42;;;;;;;5.78;4.90;;;29.80;34.30;;;;;;5067658;28;20557;-61